Westville Center, New York
Current Conditions -  °F | °C
As of 2:53 PM on Tuesday 21 Oct 2014 (Local Time) from KMSS Reporting Station
Overcast Overcast  
Wind Chill: 39°   Ceiling: 1200
Heat Index: 45°   Visibility: 10mi
Dew Point: 40°   Wind: 14mph
Humidity: 82%   Direction: 50°NE
Pressure: 30.01"   Gusts: NA
Location:  44.9516°N, 74.3293°W
Report Text: KMSS 211853Z AUTO 05012KT 10SM OVC012 07/04 A3001 RMK AO2 SLP166 T00720044
Loading
Personal Weather Stations






























Interactive Weather Map New forecast layout! Learn more

10-Day Weather Forecast

Advertisements
Track Severe Weather on mobile